Time;durP1;ratioP1;P1;durP2;ratioP2;P2;SDS_P1;SDS_P2;PMS_P1;PMS_P2;Temp;Humidity;BMP_temperature;BMP_pressure;BME280_temperature;BME280_humidity;BME280_pressure;Samples;Min_cycle;Max_cycle;Signal;HPM_P1;HPM_P2
2023/08/01 00:02:11;;;;;;;11.98;6.13;;;;;;;;;;5120491;28;21167;-80
2023/08/01 00:04:37;;;;;;;12.60;6.35;;;;;;;;;;5120667;28;20042;-80
2023/08/01 00:07:03;;;;;;;11.68;5.50;;;;;;;;;;5102738;28;20040;-80
2023/08/01 00:09:29;;;;;;;9.35;5.63;;;;;;;;;;5120628;28;20040;-80
2023/08/01 00:11:55;;;;;;;10.75;5.53;;;;;;;;;;5119891;28;20062;-80
2023/08/01 00:14:24;;;;;;;12.65;5.57;;;;;;;;;;5101634;28;20071;-79
2023/08/01 00:16:50;;;;;;;11.20;4.93;;;;;;;;;;5118028;28;20044;-80
2023/08/01 00:19:16;;;;;;;11.82;5.70;;;;;;;;;;5117433;28;20501;-79
2023/08/01 00:21:42;;;;;;;12.23;5.70;;;;;;;;;;5101728;28;20052;-80
2023/08/01 00:24:08;;;;;;;10.32;5.70;;;;;;;;;;5120017;28;20052;-80
2023/08/01 00:26:35;;;;;;;13.10;6.60;;;;;;;;;;5121315;28;20508;-80
2023/08/01 00:29:01;;;;;;;12.98;6.47;;;;;;;;;;5120985;28;20115;-80
2023/08/01 00:31:27;;;;;;;14.95;7.18;;;;;;;;;;5120925;28;20043;-80
2023/08/01 00:33:53;;;;;;;16.95;7.68;;;;;;;;;;5111510;28;20502;-80
2023/08/01 00:36:19;;;;;;;13.32;7.70;;;;;;;;;;5083563;28;20107;-80
2023/08/01 00:38:46;;;;;;;17.50;7.90;;;;;;;;;;5083823;28;20044;-80
2023/08/01 00:41:12;;;;;;;13.48;7.18;;;;;;;;;;5101566;28;20048;-80
2023/08/01 00:43:38;;;;;;;14.68;8.48;;;;;;;;;;5101586;28;20127;-80
2023/08/01 00:46:06;;;;;;;13.98;7.88;;;;;;;;;;5084056;28;20056;-80
2023/08/01 00:48:32;;;;;;;17.60;8.75;;;;;;;;;;5105438;28;20058;-80
2023/08/01 00:50:59;;;;;;;13.70;8.45;;;;;;;;;;5123227;28;20170;-80
2023/08/01 00:53:25;;;;;;;13.93;8.57;;;;;;;;;;5123207;28;20062;-80
2023/08/01 00:55:55;;;;;;;18.75;9.00;;;;;;;;;;5101681;28;20126;-80
2023/08/01 00:58:21;;;;;;;12.35;8.32;;;;;;;;;;5120775;28;20039;-80
2023/08/01 01:00:48;;;;;;;17.52;10.55;;;;;;;;;;5093326;28;20089;-80
2023/08/01 01:03:14;;;;;;;17.48;9.20;;;;;;;;;;5098311;28;20462;-81
2023/08/01 01:05:50;;;;;;;15.73;8.80;;;;;;;;;;5156380;22;20417;-81
2023/08/01 01:08:16;;;;;;;16.60;9.27;;;;;;;;;;5065133;28;20118;-82
2023/08/01 01:10:42;;;;;;;17.17;8.63;;;;;;;;;;5080925;28;20059;-83
2023/08/01 01:13:08;;;;;;;15.88;7.90;;;;;;;;;;5080822;28;20477;-82
2023/08/01 01:15:34;;;;;;;16.77;9.30;;;;;;;;;;5078211;28;20040;-82
2023/08/01 01:18:00;;;;;;;12.50;8.48;;;;;;;;;;5078256;28;20037;-82
2023/08/01 01:20:26;;;;;;;16.98;9.23;;;;;;;;;;5080394;28;20055;-82
2023/08/01 01:22:54;;;;;;;16.63;9.68;;;;;;;;;;5079664;28;20088;-82
2023/08/01 01:25:22;;;;;;;14.88;9.43;;;;;;;;;;5045197;28;20047;-82
2023/08/01 01:27:49;;;;;;;17.23;9.27;;;;;;;;;;5081070;28;20497;-82
2023/08/01 01:30:16;;;;;;;15.40;9.82;;;;;;;;;;5080663;28;20048;-82
2023/08/01 01:32:42;;;;;;;16.23;9.05;;;;;;;;;;5081203;28;20387;-82
2023/08/01 01:35:08;;;;;;;17.83;10.48;;;;;;;;;;5079488;28;20044;-83
2023/08/01 01:37:34;;;;;;;13.30;8.98;;;;;;;;;;5081885;28;20055;-82
2023/08/01 01:40:00;;;;;;;17.10;10.35;;;;;;;;;;5081234;28;20044;-83
2023/08/01 01:42:26;;;;;;;16.38;9.23;;;;;;;;;;5082250;28;20044;-82
2023/08/01 01:44:52;;;;;;;19.05;10.18;;;;;;;;;;5081907;28;20049;-83
2023/08/01 01:47:19;;;;;;;17.98;9.45;;;;;;;;;;5082403;28;20068;-83
2023/08/01 01:49:45;;;;;;;18.55;9.02;;;;;;;;;;5080961;28;20048;-83
2023/08/01 01:52:11;;;;;;;19.02;8.18;;;;;;;;;;5081563;28;20048;-83
2023/08/01 01:54:37;;;;;;;16.27;8.18;;;;;;;;;;5066918;28;20041;-83
2023/08/01 01:57:03;;;;;;;16.75;9.15;;;;;;;;;;5043574;28;20053;-83
2023/08/01 01:59:29;;;;;;;13.88;8.75;;;;;;;;;;5026081;28;20045;-83
2023/08/01 02:01:55;;;;;;;15.02;8.82;;;;;;;;;;5060544;28;20045;-83
2023/08/01 02:04:21;;;;;;;15.52;8.45;;;;;;;;;;5060994;28;20073;-83
2023/08/01 02:06:47;;;;;;;15.05;8.38;;;;;;;;;;5059698;28;20064;-83
2023/08/01 02:09:14;;;;;;;17.48;9.15;;;;;;;;;;5059485;28;20045;-83
2023/08/01 02:11:40;;;;;;;16.92;9.13;;;;;;;;;;5059729;28;20125;-83
2023/08/01 02:14:06;;;;;;;19.95;8.18;;;;;;;;;;5026687;28;20045;-82
2023/08/01 02:16:32;;;;;;;19.23;9.55;;;;;;;;;;5052151;28;20042;-83
2023/08/01 02:18:58;;;;;;;17.33;9.32;;;;;;;;;;5047328;28;20048;-83
2023/08/01 02:21:24;;;;;;;16.63;8.75;;;;;;;;;;5043655;28;20129;-83
2023/08/01 02:23:50;;;;;;;13.45;8.50;;;;;;;;;;5042844;28;20046;-83
2023/08/01 02:26:16;;;;;;;16.98;9.40;;;;;;;;;;5043075;28;20041;-83
2023/08/01 02:28:42;;;;;;;12.60;8.75;;;;;;;;;;5042812;28;20042;-82
2023/08/01 02:31:08;;;;;;;16.25;8.80;;;;;;;;;;5027841;28;20041;-82
2023/08/01 02:33:35;;;;;;;20.98;8.50;;;;;;;;;;5009127;28;20033;-83
2023/08/01 02:36:01;;;;;;;16.00;8.30;;;;;;;;;;5042842;28;20049;-83
2023/08/01 02:38:27;;;;;;;14.60;8.95;;;;;;;;;;5044129;28;20048;-83
2023/08/01 02:40:53;;;;;;;17.50;8.82;;;;;;;;;;5047276;28;20056;-83
2023/08/01 02:43:19;;;;;;;20.05;9.57;;;;;;;;;;5056077;28;20036;-83
2023/08/01 02:45:45;;;;;;;15.18;9.55;;;;;;;;;;5055573;28;20635;-83
2023/08/01 02:48:12;;;;;;;17.33;8.52;;;;;;;;;;5048371;28;20122;-83
2023/08/01 02:50:38;;;;;;;15.23;9.00;;;;;;;;;;5046040;28;20136;-83
2023/08/01 02:53:05;;;;;;;16.98;8.57;;;;;;;;;;5045694;28;20403;-83
2023/08/01 02:55:31;;;;;;;15.27;7.63;;;;;;;;;;5045802;28;20049;-83
2023/08/01 02:57:57;;;;;;;16.88;9.10;;;;;;;;;;5027199;28;20041;-83
2023/08/01 03:00:24;;;;;;;14.85;7.13;;;;;;;;;;5042543;28;20045;-83
2023/08/01 03:02:50;;;;;;;13.55;7.30;;;;;;;;;;5043932;28;20037;-82
2023/08/01 03:05:16;;;;;;;13.32;7.05;;;;;;;;;;5044605;28;20058;-82
2023/08/01 03:07:43;;;;;;;13.65;6.55;;;;;;;;;;5045551;28;20052;-82
2023/08/01 03:10:11;;;;;;;16.67;7.15;;;;;;;;;;5043454;28;20045;-82
2023/08/01 03:12:40;;;;;;;16.42;7.68;;;;;;;;;;5025709;28;20061;-83
2023/08/01 03:15:08;;;;;;;14.90;7.85;;;;;;;;;;5042344;28;20037;-83
2023/08/01 03:17:34;;;;;;;14.38;7.18;;;;;;;;;;5044758;28;20048;-83
2023/08/01 03:20:00;;;;;;;15.43;8.48;;;;;;;;;;5043965;28;20045;-82
2023/08/01 03:22:27;;;;;;;15.00;8.07;;;;;;;;;;5042139;28;20055;-82
2023/08/01 03:24:53;;;;;;;16.25;8.35;;;;;;;;;;5027204;28;20037;-83
2023/08/01 03:27:19;;;;;;;18.33;8.45;;;;;;;;;;5043964;28;20137;-83
2023/08/01 03:29:45;;;;;;;13.23;7.75;;;;;;;;;;5045462;28;20049;-83
2023/08/01 03:32:11;;;;;;;15.88;8.90;;;;;;;;;;5044674;28;20052;-83
2023/08/01 03:34:39;;;;;;;14.20;8.00;;;;;;;;;;5044286;28;20176;-83
2023/08/01 03:37:05;;;;;;;21.02;9.55;;;;;;;;;;5043126;28;20058;-81
2023/08/01 03:39:31;;;;;;;19.23;8.60;;;;;;;;;;5026430;28;20053;-83
2023/08/01 03:41:57;;;;;;;18.77;8.80;;;;;;;;;;5044491;28;20511;-83
2023/08/01 03:44:23;;;;;;;20.13;9.20;;;;;;;;;;5044555;28;20415;-83
2023/08/01 03:46:49;;;;;;;16.65;8.40;;;;;;;;;;5025660;28;20049;-84
2023/08/01 03:49:15;;;;;;;14.20;7.15;;;;;;;;;;5044999;28;20122;-84
2023/08/01 03:51:41;;;;;;;18.10;8.25;;;;;;;;;;5044883;28;20045;-85
2023/08/01 03:54:08;;;;;;;16.52;6.93;;;;;;;;;;5043084;28;20546;-83
2023/08/01 03:56:34;;;;;;;17.25;8.02;;;;;;;;;;5046745;28;20049;-83
2023/08/01 03:59:00;;;;;;;15.95;7.57;;;;;;;;;;5045978;28;20049;-81
2023/08/01 04:01:26;;;;;;;17.80;7.70;;;;;;;;;;5041775;28;20208;-82
2023/08/01 04:03:52;;;;;;;17.90;8.10;;;;;;;;;;5042618;28;20128;-82
2023/08/01 04:06:18;;;;;;;14.10;7.50;;;;;;;;;;5035951;28;20053;-82
2023/08/01 04:08:44;;;;;;;16.30;7.63;;;;;;;;;;5019549;28;20045;-81
2023/08/01 04:11:11;;;;;;;13.15;5.65;;;;;;;;;;5041366;28;20050;-82
2023/08/01 04:13:37;;;;;;;10.13;4.70;;;;;;;;;;5041344;28;20056;-83
2023/08/01 04:16:03;;;;;;;9.88;4.25;;;;;;;;;;5041606;28;20069;-82
2023/08/01 04:18:29;;;;;;;12.35;4.38;;;;;;;;;;5040466;28;20045;-81
2023/08/01 04:20:55;;;;;;;11.18;4.35;;;;;;;;;;5040155;28;20050;-83
2023/08/01 04:23:21;;;;;;;7.90;3.10;;;;;;;;;;5039917;28;20464;-81
2023/08/01 04:25:47;;;;;;;9.60;3.00;;;;;;;;;;5039455;28;20483;-82
2023/08/01 04:28:13;;;;;;;9.75;3.05;;;;;;;;;;5039354;28;20383;-83
2023/08/01 04:30:40;;;;;;;6.60;2.60;;;;;;;;;;5040845;28;20052;-81
2023/08/01 04:33:06;;;;;;;7.32;2.88;;;;;;;;;;5040473;28;20079;-82
2023/08/01 04:35:32;;;;;;;10.20;2.67;;;;;;;;;;5040409;28;20045;-81
2023/08/01 04:37:58;;;;;;;9.32;2.58;;;;;;;;;;5042939;28;20104;-81
2023/08/01 04:40:24;;;;;;;9.68;2.60;;;;;;;;;;5040866;28;20048;-81
2023/08/01 04:42:50;;;;;;;7.35;2.38;;;;;;;;;;5040254;28;20119;-81
2023/08/01 04:45:16;;;;;;;6.07;1.92;;;;;;;;;;5005955;28;20049;-80
2023/08/01 04:47:42;;;;;;;8.80;2.47;;;;;;;;;;5039374;28;20396;-83
2023/08/01 04:50:08;;;;;;;8.80;2.40;;;;;;;;;;5039846;28;20046;-82
2023/08/01 04:52:35;;;;;;;7.82;2.10;;;;;;;;;;5038462;28;20041;-81
2023/08/01 04:55:01;;;;;;;10.55;2.10;;;;;;;;;;5039513;28;20041;-81
2023/08/01 04:57:27;;;;;;;8.30;1.90;;;;;;;;;;5040048;28;20515;-81
2023/08/01 04:59:53;;;;;;;5.25;1.80;;;;;;;;;;5040383;28;20045;-81
2023/08/01 05:02:19;;;;;;;6.03;2.17;;;;;;;;;;5039673;28;20427;-81
2023/08/01 05:04:45;;;;;;;5.82;1.85;;;;;;;;;;5039270;28;20049;-81
2023/08/01 05:07:11;;;;;;;7.05;1.75;;;;;;;;;;5039995;28;20053;-81
2023/08/01 05:09:38;;;;;;;6.55;1.67;;;;;;;;;;5038439;28;20061;-81
2023/08/01 05:12:04;;;;;;;7.90;2.05;;;;;;;;;;5022112;28;20505;-82
2023/08/01 05:14:30;;;;;;;6.05;1.77;;;;;;;;;;5038786;28;20145;-81
2023/08/01 05:16:56;;;;;;;5.63;1.70;;;;;;;;;;5038310;28;20046;-81
2023/08/01 05:19:22;;;;;;;7.07;1.92;;;;;;;;;;5005196;28;20476;-82
2023/08/01 05:21:48;;;;;;;5.63;1.52;;;;;;;;;;5038931;28;20045;-83
2023/08/01 05:24:14;;;;;;;6.38;1.92;;;;;;;;;;5022731;28;20099;-83
2023/08/01 05:26:41;;;;;;;6.32;1.98;;;;;;;;;;5040497;28;20038;-81
2023/08/01 05:29:07;;;;;;;8.70;2.00;;;;;;;;;;5039619;28;20041;-82
2023/08/01 05:31:33;;;;;;;7.18;1.88;;;;;;;;;;5023180;28;20415;-82
2023/08/01 05:33:59;;;;;;;6.10;1.67;;;;;;;;;;5022183;28;20041;-82
2023/08/01 05:36:25;;;;;;;6.45;2.00;;;;;;;;;;5002133;28;20065;-82
2023/08/01 05:38:51;;;;;;;6.18;1.35;;;;;;;;;;5009082;28;20583;-82
2023/08/01 05:41:17;;;;;;;6.28;1.50;;;;;;;;;;5039138;28;20045;-82
2023/08/01 05:43:43;;;;;;;5.32;1.67;;;;;;;;;;5028012;28;20069;-81
2023/08/01 05:46:09;;;;;;;4.75;1.65;;;;;;;;;;5022321;28;20038;-81
2023/08/01 05:48:35;;;;;;;5.72;1.52;;;;;;;;;;5010034;28;20038;-81
2023/08/01 05:51:01;;;;;;;5.00;1.40;;;;;;;;;;5028864;28;20046;-82
2023/08/01 05:53:28;;;;;;;3.92;1.60;;;;;;;;;;5042338;28;20061;-82
2023/08/01 05:55:54;;;;;;;6.63;1.58;;;;;;;;;;5030788;28;20100;-82
2023/08/01 05:58:21;;;;;;;7.45;1.42;;;;;;;;;;5028261;28;20034;-82
2023/08/01 06:00:47;;;;;;;6.85;1.77;;;;;;;;;;5033119;28;20052;-83
2023/08/01 06:03:13;;;;;;;4.90;1.50;;;;;;;;;;5025792;28;20042;-82
2023/08/01 06:05:39;;;;;;;5.63;1.95;;;;;;;;;;5029435;28;20058;-82
2023/08/01 06:08:07;;;;;;;7.40;1.88;;;;;;;;;;5034923;28;20045;-85
2023/08/01 06:10:33;;;;;;;5.03;1.70;;;;;;;;;;5038503;28;20045;-82
2023/08/01 06:13:00;;;;;;;5.10;1.40;;;;;;;;;;5040353;28;20033;-83
2023/08/01 06:15:26;;;;;;;4.55;1.40;;;;;;;;;;5040376;28;20042;-82
2023/08/01 06:17:52;;;;;;;5.90;1.77;;;;;;;;;;5042368;28;20046;-83
2023/08/01 06:20:18;;;;;;;6.90;2.22;;;;;;;;;;5046146;28;20037;-83
2023/08/01 06:22:44;;;;;;;6.18;1.73;;;;;;;;;;5019206;28;20045;-83
2023/08/01 06:25:10;;;;;;;5.38;1.73;;;;;;;;;;5030097;28;20069;-82
2023/08/01 06:27:36;;;;;;;7.40;1.90;;;;;;;;;;5031538;28;20048;-84
2023/08/01 06:30:02;;;;;;;6.47;1.80;;;;;;;;;;5036035;28;20041;-84
2023/08/01 06:32:29;;;;;;;5.88;1.80;;;;;;;;;;5031044;28;20049;-83
2023/08/01 06:34:55;;;;;;;6.35;1.98;;;;;;;;;;5037437;28;20069;-84
2023/08/01 06:37:21;;;;;;;5.35;1.83;;;;;;;;;;5027632;28;20038;-84
2023/08/01 06:39:47;;;;;;;5.25;1.75;;;;;;;;;;5015426;28;20033;-82
2023/08/01 06:42:13;;;;;;;5.68;2.03;;;;;;;;;;5035140;28;20042;-82
2023/08/01 06:44:39;;;;;;;3.65;1.20;;;;;;;;;;5034212;28;20042;-84
2023/08/01 06:47:05;;;;;;;6.45;1.48;;;;;;;;;;5046412;28;20037;-83
2023/08/01 06:49:31;;;;;;;5.32;1.52;;;;;;;;;;5044489;28;20097;-84
2023/08/01 06:51:57;;;;;;;7.40;1.80;;;;;;;;;;5028464;28;20041;-83
2023/08/01 06:54:23;;;;;;;3.75;1.25;;;;;;;;;;5015125;28;20046;-82
2023/08/01 06:56:49;;;;;;;6.43;1.40;;;;;;;;;;5033181;28;20400;-82
2023/08/01 06:59:15;;;;;;;5.35;1.30;;;;;;;;;;5034879;28;20045;-83
2023/08/01 07:01:43;;;;;;;5.18;1.40;;;;;;;;;;5031757;28;20044;-82
2023/08/01 07:04:09;;;;;;;5.93;1.50;;;;;;;;;;5013649;28;20042;-82
2023/08/01 07:06:35;;;;;;;4.53;1.50;;;;;;;;;;5030413;28;20045;-83
2023/08/01 07:09:01;;;;;;;6.05;1.75;;;;;;;;;;5036130;28;20064;-83
2023/08/01 07:11:27;;;;;;;4.57;1.42;;;;;;;;;;5016600;28;20037;-83
2023/08/01 07:13:53;;;;;;;6.47;1.63;;;;;;;;;;5039505;28;20126;-83
2023/08/01 07:16:19;;;;;;;5.25;1.65;;;;;;;;;;5041892;28;20037;-83
2023/08/01 07:18:47;;;;;;;5.43;1.63;;;;;;;;;;5023341;28;20057;-83
2023/08/01 07:21:13;;;;;;;6.10;1.50;;;;;;;;;;5039581;28;20049;-82
2023/08/01 07:23:40;;;;;;;5.15;1.33;;;;;;;;;;5034259;28;20049;-82
2023/08/01 07:26:06;;;;;;;5.60;1.60;;;;;;;;;;5033113;28;20107;-82
2023/08/01 07:28:32;;;;;;;3.78;1.50;;;;;;;;;;5030708;28;20057;-83
2023/08/01 07:30:59;;;;;;;6.45;1.45;;;;;;;;;;5037383;28;20038;-82
2023/08/01 07:33:25;;;;;;;5.72;1.50;;;;;;;;;;5038129;28;20042;-83
2023/08/01 07:35:51;;;;;;;6.32;1.70;;;;;;;;;;5022726;28;20076;-82
2023/08/01 07:38:17;;;;;;;5.50;1.40;;;;;;;;;;5040461;28;20037;-81
2023/08/01 07:40:43;;;;;;;6.70;1.50;;;;;;;;;;5020193;28;20061;-83
2023/08/01 07:43:09;;;;;;;5.15;1.20;;;;;;;;;;5022541;28;20042;-82
2023/08/01 07:45:35;;;;;;;4.22;1.33;;;;;;;;;;5038548;28;20073;-84
2023/08/01 07:48:01;;;;;;;5.65;1.35;;;;;;;;;;5033566;28;20510;-82
2023/08/01 07:50:27;;;;;;;5.15;1.27;;;;;;;;;;5043546;28;20068;-83
2023/08/01 07:52:53;;;;;;;5.72;1.35;;;;;;;;;;5041575;28;20178;-83
2023/08/01 07:55:20;;;;;;;5.15;1.40;;;;;;;;;;5042200;28;20595;-83
2023/08/01 07:57:47;;;;;;;4.82;1.48;;;;;;;;;;5021865;28;20081;-83
2023/08/01 08:00:13;;;;;;;4.68;1.40;;;;;;;;;;5041394;28;20052;-83
2023/08/01 08:02:39;;;;;;;7.03;1.80;;;;;;;;;;5036935;28;20112;-84
2023/08/01 08:05:05;;;;;;;6.38;1.65;;;;;;;;;;5041177;28;20084;-84
2023/08/01 08:07:31;;;;;;;7.28;1.80;;;;;;;;;;5040132;28;20111;-83
2023/08/01 08:09:57;;;;;;;5.60;1.70;;;;;;;;;;5040190;28;20056;-83
2023/08/01 08:12:26;;;;;;;4.78;1.70;;;;;;;;;;5037556;28;20045;-83
2023/08/01 08:14:52;;;;;;;7.28;2.00;;;;;;;;;;5037307;28;20124;-82
2023/08/01 08:17:18;;;;;;;6.20;1.85;;;;;;;;;;5037667;28;20045;-83
2023/08/01 08:19:45;;;;;;;7.72;1.55;;;;;;;;;;5018590;28;20053;-83
2023/08/01 08:22:11;;;;;;;6.22;1.95;;;;;;;;;;5040245;28;20033;-84
2023/08/01 08:24:37;;;;;;;5.25;1.55;;;;;;;;;;5041871;28;20041;-84
2023/08/01 08:27:03;;;;;;;5.10;1.70;;;;;;;;;;5037749;28;20072;-83
2023/08/01 08:29:30;;;;;;;5.55;1.60;;;;;;;;;;5023269;28;20393;-83
2023/08/01 08:31:56;;;;;;;7.80;1.88;;;;;;;;;;5039624;28;20045;-84
2023/08/01 08:34:22;;;;;;;6.70;1.77;;;;;;;;;;5031366;28;20133;-83
2023/08/01 08:36:50;;;;;;;5.80;1.67;;;;;;;;;;5033440;28;20137;-82
2023/08/01 08:39:16;;;;;;;6.13;1.35;;;;;;;;;;5036973;28;20053;-83
2023/08/01 08:41:52;;;;;;;7.55;1.60;;;;;;;;;;5036280;28;20045;-84
2023/08/01 08:44:21;;;;;;;5.53;1.40;;;;;;;;;;5037769;28;20133;-83
2023/08/01 08:46:55;;;;;;;6.68;1.40;;;;;;;;;;5012597;28;20049;-83
2023/08/01 08:49:22;;;;;;;6.00;1.50;;;;;;;;;;5021250;28;20045;-83
2023/08/01 08:51:51;;;;;;;5.40;1.67;;;;;;;;;;5041637;28;20053;-83
2023/08/01 08:54:17;;;;;;;4.93;1.45;;;;;;;;;;5040186;28;20049;-83
2023/08/01 08:56:44;;;;;;;8.82;1.70;;;;;;;;;;5043073;28;20046;-83
2023/08/01 08:59:10;;;;;;;6.15;1.75;;;;;;;;;;5039086;28;20037;-83
2023/08/01 09:01:36;;;;;;;7.90;1.50;;;;;;;;;;5041915;28;20065;-83
2023/08/01 09:04:06;;;;;;;5.65;1.52;;;;;;;;;;5041120;28;20046;-82
2023/08/01 09:06:35;;;;;;;6.30;1.65;;;;;;;;;;5041075;28;20072;-83
2023/08/01 09:09:01;;;;;;;5.93;1.65;;;;;;;;;;5011621;28;20050;-83
2023/08/01 09:11:27;;;;;;;5.75;1.50;;;;;;;;;;5039358;28;20511;-83
2023/08/01 09:13:53;;;;;;;15.65;1.75;;;;;;;;;;5043538;28;20049;-83
2023/08/01 09:16:20;;;;;;;7.30;1.95;;;;;;;;;;5042334;28;20045;-83
2023/08/01 09:18:50;;;;;;;7.90;1.65;;;;;;;;;;5023910;28;20045;-82
2023/08/01 09:21:18;;;;;;;5.93;1.73;;;;;;;;;;5043275;28;20046;-83
2023/08/01 09:23:44;;;;;;;5.05;1.60;;;;;;;;;;5040891;28;20044;-83
2023/08/01 09:26:14;;;;;;;6.40;1.55;;;;;;;;;;5039003;28;20037;-83
2023/08/01 09:28:40;;;;;;;7.40;1.83;;;;;;;;;;5046770;28;20152;-83
2023/08/01 09:31:06;;;;;;;6.22;1.95;;;;;;;;;;5047312;28;20041;-84
2023/08/01 09:33:42;;;;;;;5.93;1.70;;;;;;;;;;5045804;28;20052;-83
2023/08/01 09:36:09;;;;;;;6.45;1.90;;;;;;;;;;5046055;28;20096;-83
2023/08/01 09:38:35;;;;;;;7.40;1.70;;;;;;;;;;5037175;28;20050;-80
2023/08/01 09:41:01;;;;;;;5.07;1.60;;;;;;;;;;5038562;28;20046;-82
2023/08/01 09:43:35;;;;;;;8.20;2.10;;;;;;;;;;5028400;28;20369;-83
2023/08/01 09:46:02;;;;;;;6.07;1.73;;;;;;;;;;5023392;28;20057;-83
2023/08/01 09:48:29;;;;;;;6.80;1.77;;;;;;;;;;5045567;28;20038;-83
2023/08/01 09:51:09;;;;;;;7.68;2.10;;;;;;;;;;5043784;28;20033;-82
2023/08/01 09:53:36;;;;;;;8.90;1.95;;;;;;;;;;5041804;28;20033;-82
2023/08/01 09:56:02;;;;;;;7.20;2.08;;;;;;;;;;5044625;28;20053;-82
2023/08/01 09:58:35;;;;;;;8.18;2.20;;;;;;;;;;5042902;28;20073;-81
2023/08/01 10:01:01;;;;;;;8.00;2.05;;;;;;;;;;5046143;28;20061;-82
2023/08/01 10:03:28;;;;;;;9.38;2.15;;;;;;;;;;5044469;28;20041;-82
2023/08/01 10:05:55;;;;;;;6.97;1.90;;;;;;;;;;5043078;28;20407;-82
2023/08/01 10:08:22;;;;;;;5.88;2.10;;;;;;;;;;5044908;28;20050;-81
2023/08/01 10:10:48;;;;;;;6.90;2.00;;;;;;;;;;5042524;28;20049;-81
2023/08/01 10:13:15;;;;;;;5.22;1.63;;;;;;;;;;5026859;28;20053;-82
2023/08/01 10:15:41;;;;;;;6.70;2.10;;;;;;;;;;5045634;28;20052;-82
2023/08/01 10:18:09;;;;;;;5.88;1.77;;;;;;;;;;5042184;28;20044;-83
2023/08/01 10:20:37;;;;;;;5.85;1.55;;;;;;;;;;5040825;28;20037;-82
2023/08/01 10:23:03;;;;;;;5.88;1.60;;;;;;;;;;5024373;28;20034;-82
2023/08/01 10:25:30;;;;;;;6.10;1.50;;;;;;;;;;5033775;28;20037;-82
2023/08/01 10:28:02;;;;;;;4.65;1.48;;;;;;;;;;5042998;28;20488;-82
2023/08/01 10:30:29;;;;;;;3.83;1.17;;;;;;;;;;5036985;28;20497;-82
2023/08/01 10:32:59;;;;;;;6.25;1.35;;;;;;;;;;5040910;28;20045;-81
2023/08/01 10:35:41;;;;;;;4.55;1.40;;;;;;;;;;5042483;28;20133;-81
2023/08/01 10:38:13;;;;;;;5.95;1.50;;;;;;;;;;5028710;28;20049;-80
2023/08/01 10:40:43;;;;;;;6.32;1.30;;;;;;;;;;5041636;28;20046;-82
2023/08/01 10:43:22;;;;;;;8.85;2.08;;;;;;;;;;5020658;28;20429;-81
2023/08/01 10:45:48;;;;;;;6.55;1.60;;;;;;;;;;5009337;28;20103;-81
2023/08/01 10:48:15;;;;;;;5.18;1.00;;;;;;;;;;5044436;28;20041;-81
2023/08/01 10:50:41;;;;;;;5.28;1.20;;;;;;;;;;5041152;28;20049;-81
2023/08/01 10:53:08;;;;;;;4.90;1.08;;;;;;;;;;5041438;28;20132;-83
2023/08/01 10:55:41;;;;;;;7.70;1.30;;;;;;;;;;5022616;28;20037;-82
2023/08/01 10:58:08;;;;;;;5.10;1.30;;;;;;;;;;5040422;28;20395;-83
2023/08/01 11:00:34;;;;;;;5.43;1.33;;;;;;;;;;5022241;28;20042;-84
2023/08/01 11:03:00;;;;;;;5.60;1.25;;;;;;;;;;5041521;28;20045;-83
2023/08/01 11:05:28;;;;;;;5.15;1.42;;;;;;;;;;5036116;28;20137;-84
2023/08/01 11:07:58;;;;;;;5.38;1.40;;;;;;;;;;5039685;28;20041;-84
2023/08/01 11:10:28;;;;;;;6.32;1.50;;;;;;;;;;5038120;28;20116;-83
2023/08/01 11:12:55;;;;;;;6.00;1.73;;;;;;;;;;5020934;28;20144;-83
2023/08/01 11:15:21;;;;;;;5.97;1.40;;;;;;;;;;5041460;28;20048;-84
2023/08/01 11:17:48;;;;;;;5.43;1.52;;;;;;;;;;5036231;28;20396;-83
2023/08/01 11:20:14;;;;;;;5.85;1.20;;;;;;;;;;5021919;28;20046;-84
2023/08/01 11:23:04;;;;;;;5.80;1.38;;;;;;;;;;5037154;28;20111;-82
2023/08/01 11:25:36;;;;;;;6.85;1.40;;;;;;;;;;5042098;28;20053;-82
2023/08/01 11:28:04;;;;;;;6.25;1.50;;;;;;;;;;5043651;28;20046;-83
2023/08/01 11:30:31;;;;;;;5.35;1.35;;;;;;;;;;5043134;28;20052;-82
2023/08/01 11:32:57;;;;;;;8.27;1.45;;;;;;;;;;5043064;28;20123;-83
2023/08/01 11:35:23;;;;;;;6.25;1.30;;;;;;;;;;5044108;28;20047;-85
2023/08/01 11:37:51;;;;;;;7.25;1.75;;;;;;;;;;5043563;28;20072;-83
2023/08/01 11:40:17;;;;;;;9.65;1.83;;;;;;;;;;5044756;28;20072;-84
2023/08/01 11:42:43;;;;;;;8.52;1.55;;;;;;;;;;5044302;28;20052;-83
2023/08/01 11:45:10;;;;;;;5.97;1.52;;;;;;;;;;5026210;28;20045;-83
2023/08/01 11:47:39;;;;;;;9.00;1.80;;;;;;;;;;5021812;28;20058;-83
2023/08/01 11:50:06;;;;;;;10.23;1.63;;;;;;;;;;5038010;28;20481;-83
2023/08/01 11:52:32;;;;;;;5.60;1.30;;;;;;;;;;5038809;28;20048;-84
2023/08/01 11:55:01;;;;;;;7.32;1.30;;;;;;;;;;5021852;28;20484;-85
2023/08/01 11:57:27;;;;;;;6.80;1.33;;;;;;;;;;5037440;28;20451;-84
2023/08/01 11:59:54;;;;;;;7.47;1.30;;;;;;;;;;5010007;28;20100;-86
2023/08/01 12:02:24;;;;;;;7.68;1.45;;;;;;;;;;5024399;28;20061;-85
2023/08/01 12:04:51;;;;;;;5.93;1.38;;;;;;;;;;5018289;28;20049;-85
2023/08/01 12:07:17;;;;;;;6.15;1.70;;;;;;;;;;5020557;28;20120;-86
2023/08/01 12:09:44;;;;;;;6.95;1.40;;;;;;;;;;5034682;28;20056;-85
2023/08/01 12:12:10;;;;;;;7.40;1.77;;;;;;;;;;5019596;28;20135;-84
2023/08/01 12:14:41;;;;;;;8.80;1.52;;;;;;;;;;5037075;28;20057;-83
2023/08/01 12:17:07;;;;;;;8.27;1.52;;;;;;;;;;5036021;28;20050;-84
2023/08/01 12:19:33;;;;;;;9.80;1.70;;;;;;;;;;5039526;28;20049;-84
2023/08/01 12:22:00;;;;;;;7.43;1.70;;;;;;;;;;5040615;28;20419;-86
2023/08/01 12:24:26;;;;;;;7.40;1.70;;;;;;;;;;5039536;28;20045;-83
2023/08/01 12:26:52;;;;;;;7.57;1.45;;;;;;;;;;5034402;28;20046;-85
2023/08/01 12:29:18;;;;;;;7.65;1.40;;;;;;;;;;5038914;28;20105;-85
2023/08/01 12:31:45;;;;;;;7.75;1.70;;;;;;;;;;5021621;28;20103;-83
2023/08/01 12:34:12;;;;;;;4.60;1.30;;;;;;;;;;5039933;28;20050;-84
2023/08/01 12:36:38;;;;;;;5.57;1.42;;;;;;;;;;5040676;28;20073;-84
2023/08/01 12:39:10;;;;;;;6.35;1.50;;;;;;;;;;5040055;28;20045;-85
2023/08/01 12:41:36;;;;;;;8.20;1.30;;;;;;;;;;5040112;28;20056;-85
2023/08/01 12:44:02;;;;;;;11.32;1.27;;;;;;;;;;5039065;28;20049;-85
2023/08/01 12:46:29;;;;;;;5.95;1.33;;;;;;;;;;5021380;28;20105;-84
2023/08/01 12:48:55;;;;;;;7.70;1.73;;;;;;;;;;5038725;28;20049;-84
2023/08/01 12:51:21;;;;;;;8.32;1.45;;;;;;;;;;5039420;28;20046;-84
2023/08/01 12:53:47;;;;;;;7.93;1.67;;;;;;;;;;5038836;28;20052;-84
2023/08/01 12:56:13;;;;;;;10.13;1.60;;;;;;;;;;5041932;28;20464;-84
2023/08/01 12:58:39;;;;;;;7.32;1.40;;;;;;;;;;5023184;28;20133;-84
2023/08/01 13:01:06;;;;;;;8.55;2.10;;;;;;;;;;5038848;28;20052;-84
2023/08/01 13:03:32;;;;;;;6.53;1.48;;;;;;;;;;5039209;28;20117;-84
2023/08/01 13:05:59;;;;;;;9.02;1.83;;;;;;;;;;5013677;28;20054;-84
2023/08/01 13:08:25;;;;;;;8.35;1.50;;;;;;;;;;5008139;28;20106;-85
2023/08/01 13:10:51;;;;;;;5.80;1.17;;;;;;;;;;5018283;28;20042;-84
2023/08/01 13:13:17;;;;;;;7.07;1.20;;;;;;;;;;5015714;28;20125;-84
2023/08/01 13:15:44;;;;;;;6.28;1.30;;;;;;;;;;5007347;28;20108;-85
2023/08/01 13:18:10;;;;;;;5.93;1.40;;;;;;;;;;5017157;28;20052;-85
2023/08/01 13:20:36;;;;;;;6.45;1.20;;;;;;;;;;5019179;28;20034;-84
2023/08/01 13:23:03;;;;;;;5.63;1.30;;;;;;;;;;5019608;28;20073;-86
2023/08/01 13:25:29;;;;;;;6.78;1.58;;;;;;;;;;5016833;28;20353;-85
2023/08/01 13:27:55;;;;;;;6.95;1.27;;;;;;;;;;5016512;28;20054;-85
2023/08/01 13:30:22;;;;;;;6.93;1.35;;;;;;;;;;5017584;28;20049;-86
2023/08/01 13:32:48;;;;;;;6.88;1.40;;;;;;;;;;5014482;28;20045;-85
2023/08/01 13:35:15;;;;;;;5.15;1.40;;;;;;;;;;5016181;28;20436;-86
2023/08/01 13:37:41;;;;;;;8.95;1.60;;;;;;;;;;5017405;28;20419;-87
2023/08/01 13:40:07;;;;;;;7.72;2.08;;;;;;;;;;5016830;28;20053;-86
2023/08/01 13:42:34;;;;;;;6.22;1.65;;;;;;;;;;5017334;28;20038;-84
2023/08/01 13:45:00;;;;;;;7.07;1.63;;;;;;;;;;5013597;28;20046;-86
2023/08/01 13:47:26;;;;;;;7.95;1.73;;;;;;;;;;4997876;28;20046;-86
2023/08/01 13:49:52;;;;;;;8.65;1.83;;;;;;;;;;5013817;28;20046;-84
2023/08/01 13:52:18;;;;;;;7.85;1.38;;;;;;;;;;5014018;28;20370;-84
2023/08/01 13:54:44;;;;;;;9.05;1.50;;;;;;;;;;5011794;28;20050;-86
2023/08/01 13:57:10;;;;;;;5.38;1.48;;;;;;;;;;5010897;28;20060;-83
2023/08/01 13:59:39;;;;;;;7.63;1.65;;;;;;;;;;5012601;28;20046;-84
2023/08/01 14:02:06;;;;;;;11.32;1.60;;;;;;;;;;5015473;28;20046;-82
2023/08/01 14:04:32;;;;;;;7.85;1.52;;;;;;;;;;5012644;28;20046;-84
2023/08/01 14:06:58;;;;;;;7.18;1.50;;;;;;;;;;5033087;28;20111;-84
2023/08/01 14:09:24;;;;;;;6.70;1.48;;;;;;;;;;5002146;28;20084;-83
2023/08/01 14:11:50;;;;;;;7.70;1.73;;;;;;;;;;5041470;28;20049;-84
2023/08/01 14:14:16;;;;;;;7.53;1.40;;;;;;;;;;5044470;28;20046;-84
2023/08/01 14:16:42;;;;;;;9.68;1.75;;;;;;;;;;5041348;28;20131;-82
2023/08/01 14:19:08;;;;;;;7.85;1.33;;;;;;;;;;5025732;28;20111;-84
2023/08/01 14:21:35;;;;;;;7.97;1.75;;;;;;;;;;5044903;28;20127;-84
2023/08/01 14:24:01;;;;;;;5.75;1.10;;;;;;;;;;5042189;28;20033;-84
2023/08/01 14:26:27;;;;;;;6.55;1.40;;;;;;;;;;5042073;28;20045;-84
2023/08/01 14:28:53;;;;;;;6.97;1.30;;;;;;;;;;5044784;28;20037;-84
2023/08/01 14:31:19;;;;;;;7.88;1.33;;;;;;;;;;5027392;28;20069;-84
2023/08/01 14:33:45;;;;;;;8.38;1.10;;;;;;;;;;5026345;28;20048;-83
2023/08/01 14:36:12;;;;;;;5.40;1.08;;;;;;;;;;5044610;28;20041;-82